createdAt,value
2023-04-22T00:00:27.346Z,102145.56
2023-04-22T00:03:27.618Z,102139.72
2023-04-22T00:06:20.799Z,102134.75
2023-04-22T00:09:07.309Z,102137.19
2023-04-22T00:12:19.186Z,102142.22
2023-04-22T00:14:47.903Z,102137.06
2023-04-22T00:17:16.522Z,102132.69
2023-04-22T00:19:47.726Z,102132.69
2023-04-22T00:22:20.047Z,102134.66
2023-04-22T00:24:51.058Z,102137.38
2023-04-22T00:27:19.497Z,102127.72
2023-04-22T00:29:50.871Z,102130.69
2023-04-22T00:32:20.411Z,102127.75
2023-04-22T00:35:12.434Z,102130.75
2023-04-22T00:38:20.035Z,102124.75
2023-04-22T00:47:31.983Z,102112.78
2023-04-22T00:50:27.999Z,102113.81
2023-04-22T00:53:04.881Z,102115.94
2023-04-22T00:55:43.248Z,102113.38
2023-04-22T00:58:29.871Z,102114.53
2023-04-22T01:00:59.170Z,102110.97
2023-04-22T01:03:31.536Z,102113.69
2023-04-22T01:06:00.404Z,102106.56
2023-04-22T01:08:33.194Z,102108.72
2023-04-22T01:11:02.454Z,102110.16
2023-04-22T01:13:31.677Z,102115.84
2023-04-22T01:16:04.442Z,102117.13
2023-04-22T01:18:33.583Z,102115.41
2023-04-22T01:21:05.862Z,102111.00
2023-04-22T01:23:37.466Z,102097.59
2023-04-22T01:26:07.057Z,102091.31
2023-04-22T01:28:35.925Z,102095.03
2023-04-22T01:31:04.753Z,102088.06
2023-04-22T01:33:37.000Z,102087.50
2023-04-22T01:36:05.778Z,102089.78
2023-04-22T01:38:34.809Z,102081.25
2023-04-22T01:41:04.094Z,102076.13
2023-04-22T01:43:41.981Z,102076.41
2023-04-22T01:46:26.141Z,102074.28
2023-04-22T01:49:03.753Z,102063.03
2023-04-22T01:51:33.321Z,102074.13
2023-04-22T01:54:04.958Z,102071.72
2023-04-22T01:56:34.049Z,102085.53
2023-04-22T01:59:02.536Z,102076.00
2023-04-22T02:01:31.189Z,102073.00
2023-04-22T02:03:59.584Z,102069.88
2023-04-22T02:06:28.310Z,102072.41
2023-04-22T02:08:56.570Z,102060.56
2023-04-22T02:11:24.926Z,102074.22
2023-04-22T02:13:53.198Z,102060.84
2023-04-22T02:16:21.874Z,102058.09
2023-04-22T02:18:50.539Z,102055.22
2023-04-22T02:21:18.791Z,102056.91
2023-04-22T02:23:47.267Z,102050.34
2023-04-22T02:26:15.528Z,102047.50
2023-04-22T02:28:43.771Z,102047.16
2023-04-22T02:31:12.092Z,102052.22
2023-04-22T02:33:40.611Z,102044.69
2023-04-22T02:36:09.112Z,102041.41
2023-04-22T02:38:38.326Z,102037.41
2023-04-22T02:41:06.661Z,102046.28
2023-04-22T02:43:35.060Z,102053.47
2023-04-22T02:46:04.354Z,102055.75
2023-04-22T02:48:32.901Z,102056.00
2023-04-22T02:51:01.272Z,102057.25
2023-04-22T02:53:29.579Z,102059.47
2023-04-22T02:55:59.236Z,102057.19
2023-04-22T02:58:28.065Z,102053.16
2023-04-22T03:00:57.942Z,102051.13
2023-04-22T03:03:26.830Z,102046.94
2023-04-22T03:05:55.361Z,102050.75
2023-04-22T03:08:23.778Z,102052.88
2023-04-22T03:10:52.659Z,102064.91
2023-04-22T03:13:20.867Z,102061.00
2023-04-22T03:15:49.160Z,102056.00
2023-04-22T03:18:17.488Z,102057.97
2023-04-22T03:20:45.775Z,102060.34
2023-04-22T03:23:14.057Z,102054.47
2023-04-22T03:25:42.532Z,102059.97
2023-04-22T03:28:11.448Z,102055.81
2023-04-22T03:30:39.717Z,102051.69
2023-04-22T03:33:08.100Z,102050.09
2023-04-22T03:35:36.449Z,102051.22
2023-04-22T03:38:04.729Z,102050.75
2023-04-22T03:40:33.022Z,102057.00
2023-04-22T03:43:01.346Z,102051.28
2023-04-22T03:45:30.043Z,102054.69
2023-04-22T03:47:58.447Z,102060.44
2023-04-22T03:50:26.707Z,102058.25
2023-04-22T03:52:55.004Z,102072.19
2023-04-22T03:55:23.578Z,102073.06
2023-04-22T03:57:51.933Z,102060.50
2023-04-22T04:00:20.227Z,102060.94
2023-04-22T04:02:48.540Z,102059.59
2023-04-22T04:05:17.168Z,102073.44
2023-04-22T04:07:46.033Z,102066.72
2023-04-22T04:10:14.459Z,102065.84
2023-04-22T04:12:43.215Z,102065.38
2023-04-22T04:15:12.946Z,102076.00
2023-04-22T04:17:41.314Z,102077.72
2023-04-22T04:20:09.926Z,102078.56
2023-04-22T04:22:39.704Z,102080.13
2023-04-22T04:25:09.125Z,102081.03
2023-04-22T04:27:40.091Z,102079.06
2023-04-22T04:30:10.467Z,102081.88
2023-04-22T04:32:38.857Z,102082.13
2023-04-22T04:35:07.830Z,102077.88
2023-04-22T04:37:37.942Z,102087.22
2023-04-22T04:40:08.592Z,102090.53
2023-04-22T04:42:38.274Z,102085.25
2023-04-22T04:45:07.072Z,102090.88
2023-04-22T04:47:35.375Z,102089.22
2023-04-22T04:50:06.055Z,102081.81
2023-04-22T04:52:34.316Z,102081.28
2023-04-22T04:55:02.515Z,102072.06
2023-04-22T04:57:30.753Z,102081.56
2023-04-22T04:59:59.059Z,102082.53
2023-04-22T05:02:27.431Z,102083.09
2023-04-22T05:04:55.905Z,102083.44
2023-04-22T05:07:24.242Z,102080.88
2023-04-22T05:09:52.486Z,102084.00
2023-04-22T05:12:20.853Z,102079.72
2023-04-22T05:14:49.107Z,102081.34
2023-04-22T05:17:17.533Z,102088.25
2023-04-22T05:19:45.778Z,102079.22
2023-04-22T05:22:14.142Z,102080.75
2023-04-22T05:24:42.369Z,102080.13
2023-04-22T05:27:11.172Z,102089.13
2023-04-22T05:29:39.659Z,102086.91
2023-04-22T05:32:11.625Z,102074.78
2023-04-22T05:34:40.029Z,102083.25
2023-04-22T05:37:09.175Z,102073.81
2023-04-22T05:39:37.677Z,102074.25
2023-04-22T05:42:06.100Z,102061.91
2023-04-22T05:44:34.353Z,102059.56
2023-04-22T05:47:02.622Z,102063.31
2023-04-22T05:49:31.391Z,102061.69
2023-04-22T05:51:59.881Z,102052.06
2023-04-22T05:54:28.811Z,102062.88
2023-04-22T05:56:57.771Z,102056.03
2023-04-22T05:59:26.144Z,102051.06
2023-04-22T06:01:54.382Z,102051.38
2023-04-22T06:04:22.992Z,102052.44
2023-04-22T06:06:54.769Z,102055.78
2023-04-22T06:09:23.526Z,102054.03
2023-04-22T06:11:51.793Z,102046.09
2023-04-22T06:14:20.106Z,102043.53
2023-04-22T06:16:48.599Z,102042.91
2023-04-22T06:19:17.085Z,102035.03
2023-04-22T06:21:45.323Z,102034.41
2023-04-22T06:24:14.144Z,102035.25
2023-04-22T06:26:42.426Z,102031.09
2023-04-22T06:29:10.912Z,102028.81
2023-04-22T06:31:39.380Z,102028.19
2023-04-22T06:34:07.730Z,102040.41
2023-04-22T06:36:38.397Z,102037.47
2023-04-22T06:39:07.123Z,102039.16
2023-04-22T06:41:35.718Z,102018.25
2023-04-22T06:44:04.030Z,102027.25
2023-04-22T06:46:32.312Z,102034.34
2023-04-22T06:49:00.650Z,102031.66
2023-04-22T06:51:28.930Z,102027.34
2023-04-22T06:53:59.093Z,102029.56
2023-04-22T06:56:27.366Z,102029.03
2023-04-22T06:58:56.587Z,102028.38
2023-04-22T07:01:24.932Z,102025.91
2023-04-22T07:03:53.313Z,102034.88
2023-04-22T07:06:21.824Z,102033.19
2023-04-22T07:08:50.656Z,102023.63
2023-04-22T07:11:18.897Z,102029.28
2023-04-22T07:13:47.394Z,102019.59
2023-04-22T07:16:15.700Z,102019.59
2023-04-22T07:18:44.027Z,102019.59
2023-04-22T07:21:12.255Z,102018.84
2023-04-22T07:23:41.019Z,102017.13
2023-04-22T07:26:09.302Z,102012.09
2023-04-22T07:28:37.657Z,102005.00
2023-04-22T07:31:06.098Z,102006.16
2023-04-22T07:33:34.328Z,102003.47
2023-04-22T07:36:02.608Z,101995.34
2023-04-22T07:38:30.850Z,101998.03
2023-04-22T07:40:59.195Z,101991.72
2023-04-22T07:43:27.467Z,101998.97
2023-04-22T07:45:55.787Z,101995.25
2023-04-22T07:48:24.410Z,101994.50
2023-04-22T07:50:52.693Z,101991.72
2023-04-22T07:53:21.599Z,101997.19
2023-04-22T07:55:50.629Z,101989.34
2023-04-22T07:58:19.457Z,101990.41
2023-04-22T08:00:47.774Z,101997.69
2023-04-22T08:03:16.492Z,101997.84
2023-04-22T08:05:44.911Z,101998.06
2023-04-22T08:08:13.152Z,101991.19
2023-04-22T08:10:41.533Z,101992.47
2023-04-22T08:13:09.901Z,101991.69
2023-04-22T08:15:38.155Z,101994.47
2023-04-22T08:18:06.507Z,101991.03
2023-04-22T08:20:35.460Z,101999.28
2023-04-22T08:23:03.801Z,101987.78
2023-04-22T08:25:32.420Z,101991.50
2023-04-22T08:28:00.737Z,101995.16
2023-04-22T08:30:29.005Z,101989.03
2023-04-22T08:32:57.312Z,101987.41
2023-04-22T08:35:25.664Z,101976.81
2023-04-22T08:37:54.075Z,101978.63
2023-04-22T08:40:22.524Z,101978.00
2023-04-22T08:42:53.046Z,101973.88
2023-04-22T08:45:22.194Z,101970.63
2023-04-22T08:47:51.251Z,101973.41
2023-04-22T08:50:23.342Z,101966.22
2023-04-22T08:52:52.049Z,101959.38
2023-04-22T08:55:21.286Z,101961.09
2023-04-22T08:57:51.183Z,101967.22
2023-04-22T09:00:20.389Z,101961.97
2023-04-22T09:02:49.227Z,101955.72
2023-04-22T09:05:17.738Z,101955.94
2023-04-22T09:07:46.588Z,101958.81
2023-04-22T09:10:15.308Z,101958.81
2023-04-22T09:12:44.225Z,101957.28
2023-04-22T09:15:13.528Z,101951.19
2023-04-22T09:17:44.180Z,101938.00
2023-04-22T09:20:13.863Z,101946.13
2023-04-22T09:22:47.916Z,101943.44
2023-04-22T09:25:27.102Z,101945.44
2023-04-22T09:28:00.338Z,101932.28
2023-04-22T09:30:33.989Z,101938.47
2023-04-22T09:33:04.956Z,101927.72
2023-04-22T09:35:41.744Z,101939.06
2023-04-22T09:38:14.060Z,101931.13
2023-04-22T09:40:45.949Z,101926.94
2023-04-22T09:43:18.992Z,101923.69
2023-04-22T09:45:47.591Z,101921.44
2023-04-22T09:48:21.828Z,101920.81
2023-04-22T09:50:52.135Z,101917.53
2023-04-22T09:53:22.355Z,101912.59
2023-04-22T09:55:56.829Z,101905.72
2023-04-22T09:58:26.606Z,101904.06
2023-04-22T10:01:00.189Z,101894.47
2023-04-22T10:03:28.562Z,101898.09
2023-04-22T10:05:56.887Z,101891.88
2023-04-22T10:08:25.426Z,101885.66
2023-04-22T10:10:55.029Z,101881.38
2023-04-22T10:13:23.370Z,101881.56
2023-04-22T10:15:54.725Z,101885.31
2023-04-22T10:18:29.435Z,101889.31
2023-04-22T10:21:00.535Z,101885.84
2023-04-22T10:23:34.836Z,101880.50
2023-04-22T10:26:03.286Z,101874.41
2023-04-22T10:28:31.682Z,101865.72
2023-04-22T10:30:59.969Z,101877.47
2023-04-22T10:33:29.546Z,101874.09
2023-04-22T10:36:11.379Z,101865.34
2023-04-22T10:38:41.640Z,101868.25
2023-04-22T10:41:23.668Z,101866.56
2023-04-22T10:43:59.427Z,101864.19
2023-04-22T10:46:40.676Z,101865.22
2023-04-22T10:49:14.127Z,101868.19
2023-04-22T10:51:51.294Z,101867.28
2023-04-22T10:54:31.942Z,101870.06
2023-04-22T10:57:20.601Z,101863.28
2023-04-22T10:59:56.378Z,101863.47
2023-04-22T11:02:25.603Z,101859.00
2023-04-22T11:05:33.848Z,101858.91
2023-04-22T11:08:14.076Z,101865.38
2023-04-22T11:10:45.261Z,101865.56
2023-04-22T11:13:18.217Z,101863.94
2023-04-22T11:15:52.116Z,101865.84
2023-04-22T11:18:22.894Z,101857.03
2023-04-22T11:20:52.453Z,101861.63
2023-04-22T11:23:27.411Z,101858.97
2023-04-22T11:26:03.742Z,101857.31
2023-04-22T11:28:32.706Z,101849.41
2023-04-22T11:31:08.770Z,101850.16
2023-04-22T11:33:39.309Z,101852.94
2023-04-22T11:36:12.713Z,101850.44
2023-04-22T11:38:40.953Z,101853.22
2023-04-22T11:41:09.328Z,101846.16
2023-04-22T11:43:48.564Z,101847.03
2023-04-22T11:46:16.878Z,101833.88
2023-04-22T11:48:45.169Z,101836.59
2023-04-22T11:51:13.953Z,101833.09
2023-04-22T11:53:51.604Z,101836.75
2023-04-22T11:56:21.887Z,101829.03
2023-04-22T11:58:50.136Z,101824.72
2023-04-22T12:01:19.459Z,101827.47
2023-04-22T12:03:47.865Z,101828.53
2023-04-22T12:06:17.781Z,101826.03
2023-04-22T12:08:48.651Z,101817.28
2023-04-22T12:11:16.922Z,101820.13
2023-04-22T12:13:51.552Z,101812.31
2023-04-22T12:16:21.518Z,101817.72
2023-04-22T12:18:51.673Z,101808.94
2023-04-22T12:21:26.114Z,101812.56
2023-04-22T12:23:56.569Z,101810.00
2023-04-22T12:26:27.890Z,101809.31
2023-04-22T12:28:58.749Z,101802.25
2023-04-22T12:31:28.162Z,101796.91
2023-04-22T12:33:57.037Z,101810.16
2023-04-22T12:36:26.973Z,101803.13
2023-04-22T12:38:55.329Z,101800.53
2023-04-22T12:41:24.511Z,101800.53
2023-04-22T12:43:53.380Z,101791.56
2023-04-22T12:46:21.880Z,101800.28
2023-04-22T12:48:50.198Z,101790.88
2023-04-22T12:51:18.441Z,101793.97
2023-04-22T12:53:46.666Z,101797.69
2023-04-22T12:56:15.013Z,101800.28
2023-04-22T12:58:43.638Z,101788.25
2023-04-22T13:01:11.904Z,101795.09
2023-04-22T13:03:40.275Z,101789.25
2023-04-22T13:06:08.730Z,101789.00
2023-04-22T13:08:37.081Z,101798.28
2023-04-22T13:11:05.437Z,101788.84
2023-04-22T13:13:33.693Z,101791.69
2023-04-22T13:16:03.134Z,101792.66
2023-04-22T13:18:31.477Z,101794.13
2023-04-22T13:21:01.099Z,101791.03
2023-04-22T13:23:29.478Z,101801.97
2023-04-22T13:25:57.970Z,101798.59
2023-04-22T13:28:26.861Z,101800.41
2023-04-22T13:30:56.521Z,101801.97
2023-04-22T13:33:24.950Z,101794.06
2023-04-22T13:35:53.229Z,101800.16
2023-04-22T13:38:22.145Z,101801.16
2023-04-22T13:40:50.719Z,101801.06
2023-04-22T13:43:19.102Z,101805.22
2023-04-22T13:45:49.150Z,101796.28
2023-04-22T13:48:17.948Z,101804.63
2023-04-22T13:50:46.449Z,101812.53
2023-04-22T13:53:15.022Z,101810.03
2023-04-22T13:55:44.272Z,101816.13
2023-04-22T13:58:12.552Z,101820.59
2023-04-22T14:00:40.992Z,101827.31
2023-04-22T14:03:09.513Z,101826.78
2023-04-22T14:05:37.892Z,101821.00
2023-04-22T14:08:06.228Z,101824.03
2023-04-22T14:10:35.003Z,101819.63
2023-04-22T14:13:03.260Z,101830.66
2023-04-22T14:15:31.841Z,101832.66
2023-04-22T14:18:00.272Z,101834.69
2023-04-22T14:20:28.670Z,101830.06
2023-04-22T14:22:57.026Z,101828.44
2023-04-22T14:25:25.557Z,101834.78
2023-04-22T14:27:53.957Z,101833.06
2023-04-22T14:30:22.722Z,101833.94
2023-04-22T14:32:51.630Z,101833.94
2023-04-22T14:35:20.234Z,101830.31
2023-04-22T14:37:49.095Z,101831.00
2023-04-22T14:40:18.287Z,101837.00
2023-04-22T14:42:46.679Z,101834.25
2023-04-22T14:45:15.893Z,101834.88
2023-04-22T14:47:44.220Z,101826.69
2023-04-22T14:50:12.633Z,101825.47
2023-04-22T14:52:41.103Z,101827.59
2023-04-22T14:55:19.897Z,101822.41
2023-04-22T14:57:51.724Z,101825.31
2023-04-22T15:00:20.101Z,101821.19
2023-04-22T15:02:48.708Z,101821.50
2023-04-22T15:05:17.199Z,101824.41
2023-04-22T15:07:45.435Z,101830.91
2023-04-22T15:10:15.191Z,101820.50
2023-04-22T15:12:43.931Z,101824.50
2023-04-22T15:15:16.830Z,101825.94
2023-04-22T15:17:46.726Z,101816.69
2023-04-22T15:20:15.667Z,101816.31
2023-04-22T15:22:45.513Z,101815.94
2023-04-22T15:25:14.350Z,101818.03
2023-04-22T15:27:43.579Z,101812.97
2023-04-22T15:30:12.676Z,101809.22
2023-04-22T15:32:41.058Z,101808.84
2023-04-22T15:35:09.761Z,101805.78
2023-04-22T15:37:38.180Z,101813.22
2023-04-22T15:40:08.598Z,101801.97
2023-04-22T15:42:37.083Z,101806.03
2023-04-22T15:45:05.689Z,101803.50
2023-04-22T15:47:34.719Z,101796.00
2023-04-22T15:50:07.225Z,101800.00
2023-04-22T15:52:36.584Z,101802.47
2023-04-22T15:55:05.885Z,101799.41
2023-04-22T15:57:35.647Z,101800.09
2023-04-22T16:00:13.120Z,101795.03
2023-04-22T16:02:44.282Z,101787.22
2023-04-22T16:05:15.153Z,101790.84
2023-04-22T16:07:43.450Z,101782.06
2023-04-22T16:10:12.131Z,101778.38
2023-04-22T16:12:40.397Z,101777.84
2023-04-22T16:15:09.511Z,101776.63
2023-04-22T16:17:39.070Z,101765.50
2023-04-22T16:20:08.237Z,101778.13
2023-04-22T16:22:37.204Z,101774.91
2023-04-22T16:25:05.832Z,101771.50
2023-04-22T16:27:34.402Z,101771.50
2023-04-22T16:30:02.779Z,101768.72
2023-04-22T16:32:31.270Z,101767.97
2023-04-22T16:34:59.737Z,101762.66
2023-04-22T16:37:28.333Z,101765.09
2023-04-22T16:39:57.513Z,101762.91
2023-04-22T16:42:25.764Z,101768.03
2023-04-22T16:44:54.564Z,101762.31
2023-04-22T16:47:23.468Z,101755.09
2023-04-22T16:49:51.840Z,101755.25
2023-04-22T16:52:20.414Z,101751.53
2023-04-22T16:54:48.790Z,101746.16
2023-04-22T16:57:17.198Z,101743.22
2023-04-22T16:59:45.546Z,101736.53
2023-04-22T17:02:13.985Z,101743.97
2023-04-22T17:04:42.502Z,101735.13
2023-04-22T17:07:11.697Z,101739.47
2023-04-22T17:09:40.897Z,101734.59
2023-04-22T17:12:09.444Z,101732.31
2023-04-22T17:14:37.668Z,101733.59
2023-04-22T17:17:05.968Z,101727.94
2023-04-22T17:19:37.497Z,101727.47
2023-04-22T17:22:06.116Z,101720.78
2023-04-22T17:24:34.919Z,101721.28
2023-04-22T17:27:03.815Z,101720.47
2023-04-22T17:29:32.129Z,101722.06
2023-04-22T17:32:00.550Z,101711.47
2023-04-22T17:34:28.793Z,101716.50
2023-04-22T17:36:56.976Z,101720.72
2023-04-22T17:39:25.378Z,101720.91
2023-04-22T17:41:53.689Z,101721.69
2023-04-22T17:44:21.997Z,101717.56
2023-04-22T17:46:50.300Z,101714.19
2023-04-22T17:49:18.559Z,101712.59
2023-04-22T17:51:46.951Z,101713.03
2023-04-22T17:54:15.274Z,101710.03
2023-04-22T17:56:43.866Z,101715.69
2023-04-22T17:59:15.239Z,101704.28
2023-04-22T18:01:43.851Z,101703.38
2023-04-22T18:04:12.449Z,101704.00
2023-04-22T18:06:41.014Z,101713.69
2023-04-22T18:09:09.343Z,101711.16
2023-04-22T18:11:37.839Z,101703.50
2023-04-22T18:14:06.135Z,101698.69
2023-04-22T18:16:34.566Z,101697.41
2023-04-22T18:19:04.955Z,101701.97
2023-04-22T18:21:33.962Z,101695.84
2023-04-22T18:24:03.506Z,101692.81
2023-04-22T18:26:31.782Z,101701.31
2023-04-22T18:29:00.010Z,101697.06
2023-04-22T18:31:28.465Z,101693.28
2023-04-22T18:33:56.832Z,101687.94
2023-04-22T18:36:25.069Z,101695.31
2023-04-22T18:38:53.436Z,101689.28
2023-04-22T18:41:21.841Z,101690.03
2023-04-22T18:43:50.163Z,101698.25
2023-04-22T18:46:18.486Z,101690.63
2023-04-22T18:48:46.912Z,101685.53
2023-04-22T18:51:15.154Z,101685.91
2023-04-22T18:53:44.711Z,101681.44
2023-04-22T18:56:13.164Z,101683.72
2023-04-22T18:58:41.462Z,101674.13
2023-04-22T19:01:09.911Z,101676.50
2023-04-22T19:03:40.189Z,101676.56
2023-04-22T19:06:08.908Z,101666.31
2023-04-22T19:08:37.182Z,101662.59
2023-04-22T19:11:06.635Z,101667.31
2023-04-22T19:13:35.013Z,101661.50
2023-04-22T19:16:03.307Z,101661.66
2023-04-22T19:18:31.635Z,101652.44
2023-04-22T19:21:00.196Z,101661.31
2023-04-22T19:23:28.615Z,101655.94
2023-04-22T19:25:56.849Z,101653.09
2023-04-22T19:28:25.091Z,101643.00
2023-04-22T19:30:54.140Z,101639.28
2023-04-22T19:33:22.654Z,101636.59
2023-04-22T19:35:51.428Z,101633.31
2023-04-22T19:38:22.133Z,101626.31
2023-04-22T19:40:50.416Z,101618.50
2023-04-22T19:43:19.875Z,101610.47
2023-04-22T19:45:48.144Z,101605.59
2023-04-22T19:48:16.961Z,101605.03
2023-04-22T19:50:45.680Z,101598.69
2023-04-22T19:53:14.938Z,101600.53
2023-04-22T19:55:44.829Z,101603.34
2023-04-22T19:58:13.297Z,101594.22
2023-04-22T20:00:43.390Z,101584.59
2023-04-22T20:03:13.859Z,101581.84
2023-04-22T20:05:44.312Z,101572.91
2023-04-22T20:08:14.801Z,101583.56
2023-04-22T20:10:44.256Z,101577.53
2023-04-22T20:13:12.531Z,101570.41
2023-04-22T20:15:41.025Z,101572.53
2023-04-22T20:18:09.682Z,101564.44
2023-04-22T20:20:38.168Z,101562.25
2023-04-22T20:23:11.194Z,101559.47
2023-04-22T20:25:42.862Z,101555.03
2023-04-22T20:28:11.872Z,101567.28
2023-04-22T20:30:40.534Z,101555.06
2023-04-22T20:33:11.538Z,101561.44
2023-04-22T20:35:41.254Z,101554.31
2023-04-22T20:38:14.157Z,101543.84
2023-04-22T20:40:43.818Z,101541.63
2023-04-22T20:43:12.136Z,101536.66
2023-04-22T20:45:40.419Z,101542.13
2023-04-22T20:48:09.012Z,101541.47
2023-04-22T20:50:37.348Z,101535.97
2023-04-22T20:53:06.046Z,101538.84
2023-04-22T20:55:36.778Z,101537.06
2023-04-22T20:58:05.507Z,101528.81
2023-04-22T21:00:33.822Z,101527.97
2023-04-22T21:03:04.179Z,101522.88
2023-04-22T21:05:41.985Z,101521.16
2023-04-22T21:08:23.977Z,101521.84
2023-04-22T21:10:54.634Z,101519.81
2023-04-22T21:13:24.199Z,101518.09
2023-04-22T21:16:04.651Z,101514.81
2023-04-22T21:18:34.810Z,101517.69
2023-04-22T21:21:06.018Z,101512.28
2023-04-22T21:23:35.159Z,101503.72
2023-04-22T21:26:04.458Z,101499.16
2023-04-22T21:28:33.228Z,101501.41
2023-04-22T21:31:02.037Z,101498.88
2023-04-22T21:33:30.317Z,101492.94
2023-04-22T21:35:59.031Z,101491.22
2023-04-22T21:38:27.284Z,101489.09
2023-04-22T21:40:55.610Z,101485.94
2023-04-22T21:43:24.270Z,101479.25
2023-04-22T21:45:52.528Z,101482.63
2023-04-22T21:48:20.737Z,101479.81
2023-04-22T21:50:49.556Z,101479.66
2023-04-22T21:53:20.291Z,101479.50
2023-04-22T21:55:48.769Z,101471.25
2023-04-22T21:58:17.077Z,101482.06
2023-04-22T22:00:45.938Z,101478.34
2023-04-22T22:03:14.510Z,101477.44
2023-04-22T22:05:42.925Z,101481.34
2023-04-22T22:08:11.171Z,101483.81
2023-04-22T22:10:39.958Z,101471.25
2023-04-22T22:13:09.256Z,101470.88
2023-04-22T22:15:37.744Z,101471.63
2023-04-22T22:18:07.686Z,101466.91
2023-04-22T22:20:37.814Z,101467.34
2023-04-22T22:23:06.186Z,101459.06
2023-04-22T22:25:34.466Z,101449.94
2023-04-22T22:28:02.892Z,101445.06
2023-04-22T22:30:31.562Z,101432.94
2023-04-22T22:32:59.944Z,101429.28
2023-04-22T22:35:28.395Z,101431.03
2023-04-22T22:37:56.731Z,101422.28
2023-04-22T22:40:25.257Z,101429.06
2023-04-22T22:42:54.101Z,101422.47
2023-04-22T22:45:22.445Z,101417.94
2023-04-22T22:47:50.996Z,101421.31
2023-04-22T22:50:38.043Z,101414.91
2023-04-22T22:53:09.004Z,101413.88
2023-04-22T22:55:37.507Z,101413.25
2023-04-22T22:58:05.965Z,101413.25
2023-04-22T23:00:42.352Z,101407.69
2023-04-22T23:03:11.180Z,101402.13
2023-04-22T23:05:43.072Z,101411.91
2023-04-22T23:08:11.750Z,101404.81
2023-04-22T23:10:40.350Z,101408.38
2023-04-22T23:13:09.199Z,101401.25
2023-04-22T23:15:37.586Z,101403.66
2023-04-22T23:18:07.421Z,101395.22
2023-04-22T23:24:17.010Z,101389.78
2023-04-22T23:26:46.005Z,101383.00
2023-04-22T23:29:16.968Z,101380.47
2023-04-22T23:31:46.803Z,101377.38
2023-04-22T23:34:18.163Z,101376.00
2023-04-22T23:36:46.867Z,101372.28
2023-04-22T23:39:15.233Z,101370.59
2023-04-22T23:41:53.955Z,101369.91
2023-04-22T23:45:04.624Z,101370.91
2023-04-22T23:47:33.398Z,101374.94
2023-04-22T23:50:01.980Z,101375.28
2023-04-22T23:52:48.259Z,101367.47
2023-04-22T23:55:16.941Z,101358.00
2023-04-22T23:57:45.497Z,101362.72
